createdAt,value
2022-09-03T00:01:02.117Z,69.94
2022-09-03T00:02:20.709Z,67.12
2022-09-03T00:03:34.804Z,73.56
2022-09-03T00:04:44.763Z,71.56
2022-09-03T00:05:57.535Z,73.00
2022-09-03T00:07:07.050Z,70.56
2022-09-03T00:08:16.642Z,68.62
2022-09-03T00:09:26.347Z,61.67
2022-09-03T00:10:40.872Z,70.06
2022-09-03T00:12:02.785Z,69.25
2022-09-03T00:13:09.383Z,63.94
2022-09-03T00:14:16.344Z,69.00
2022-09-03T00:15:24.321Z,66.62
2022-09-03T00:16:32.853Z,70.31
2022-09-03T00:17:42.690Z,65.44
2022-09-03T00:18:58.791Z,69.81
2022-09-03T00:20:05.584Z,68.25
2022-09-03T00:21:18.322Z,70.37
2022-09-03T00:22:28.970Z,72.50
2022-09-03T00:23:34.879Z,69.12
2022-09-03T00:24:42.295Z,68.56
2022-09-03T00:25:49.285Z,66.06
2022-09-03T00:26:57.600Z,59.81
2022-09-03T00:28:04.766Z,66.06
2022-09-03T00:29:20.561Z,65.94
2022-09-03T00:30:29.890Z,65.62
2022-09-03T00:31:42.846Z,65.94
2022-09-03T00:32:54.889Z,63.75
2022-09-03T00:34:04.477Z,61.00
2022-09-03T00:35:11.554Z,63.19
2022-09-03T00:36:37.990Z,67.75
2022-09-03T00:37:42.024Z,61.06
2022-09-03T00:38:46.715Z,55.19
2022-09-03T00:39:50.988Z,61.75
2022-09-03T00:41:16.330Z,63.00
2022-09-03T00:42:35.418Z,55.81
2022-09-03T00:43:45.202Z,47.50
2022-09-03T00:45:05.470Z,50.75
2022-09-03T00:46:18.650Z,30.44
2022-09-03T00:47:28.796Z,44.69
2022-09-03T00:48:35.747Z,51.75
2022-09-03T00:49:49.565Z,62.38
2022-09-03T00:50:56.633Z,47.44
2022-09-03T00:52:23.153Z,50.27
2022-09-03T00:53:28.770Z,49.94
2022-09-03T00:54:53.734Z,41.44
2022-09-03T00:56:18.690Z,61.00
2022-09-03T00:57:42.081Z,63.25
2022-09-03T00:58:54.853Z,61.67
2022-09-03T01:00:10.628Z,51.31
2022-09-03T01:01:26.662Z,53.94
2022-09-03T01:02:42.871Z,56.69
2022-09-03T01:04:02.107Z,58.13
2022-09-03T01:05:18.147Z,57.50
2022-09-03T01:06:45.081Z,58.20
2022-09-03T01:07:52.091Z,61.31
2022-09-03T01:09:18.719Z,55.13
2022-09-03T01:10:41.497Z,60.25
2022-09-03T01:12:11.109Z,57.25
2022-09-03T01:13:23.932Z,56.56
2022-09-03T01:14:33.702Z,57.31
2022-09-03T01:15:43.491Z,49.07
2022-09-03T01:16:59.364Z,55.00
2022-09-03T01:18:09.222Z,56.00
2022-09-03T01:19:28.143Z,49.33
2022-09-03T01:20:53.219Z,52.67
2022-09-03T01:22:02.960Z,52.50
2022-09-03T01:23:21.562Z,51.06
2022-09-03T01:24:49.340Z,49.13
2022-09-03T01:26:08.090Z,47.44
2022-09-03T01:27:34.380Z,54.19
2022-09-03T01:28:44.124Z,50.69
2022-09-03T01:30:09.070Z,48.69
2022-09-03T01:31:31.235Z,49.69
2022-09-03T01:32:50.212Z,58.25
2022-09-03T01:34:00.103Z,44.88
2022-09-03T01:35:12.810Z,49.94
2022-09-03T01:36:41.395Z,48.81
2022-09-03T01:37:51.132Z,47.31
2022-09-03T01:38:58.115Z,53.38
2022-09-03T01:40:09.860Z,44.69
2022-09-03T01:41:34.535Z,44.38
2022-09-03T01:42:47.356Z,48.00
2022-09-03T01:44:21.500Z,50.60
2022-09-03T01:45:34.508Z,52.81
2022-09-03T01:46:41.254Z,48.00
2022-09-03T01:47:53.945Z,47.88
2022-09-03T01:49:09.962Z,52.62
2022-09-03T01:50:17.247Z,57.00
2022-09-03T01:51:24.229Z,50.56
2022-09-03T01:52:45.925Z,52.94
2022-09-03T01:54:21.182Z,48.38
2022-09-03T01:55:36.107Z,54.69
2022-09-03T01:57:34.715Z,53.69
2022-09-03T01:58:43.089Z,57.56
2022-09-03T01:59:53.050Z,56.19
2022-09-03T02:01:00.141Z,50.75
2022-09-03T02:02:07.124Z,55.13
2022-09-03T02:03:13.745Z,54.80
2022-09-03T02:04:20.820Z,54.81
2022-09-03T02:05:28.033Z,49.94
2022-09-03T02:06:32.861Z,50.06
2022-09-03T02:07:51.642Z,56.47
2022-09-03T02:08:55.615Z,57.88
2022-09-03T02:10:00.573Z,62.73
2022-09-03T02:11:07.579Z,51.63
2022-09-03T02:12:17.129Z,52.13
2022-09-03T02:13:24.036Z,58.73
2022-09-03T02:14:29.633Z,58.44
2022-09-03T02:15:35.808Z,54.69
2022-09-03T02:16:40.398Z,54.40
2022-09-03T02:17:47.510Z,50.75
2022-09-03T02:18:54.270Z,66.62
2022-09-03T02:19:58.746Z,65.69
2022-09-03T02:21:03.458Z,57.40
2022-09-03T02:22:07.581Z,57.56
2022-09-03T02:23:11.782Z,56.50
2022-09-03T02:24:16.017Z,53.93
2022-09-03T02:25:21.144Z,51.37
2022-09-03T02:26:25.728Z,51.13
2022-09-03T02:27:29.778Z,50.63
2022-09-03T02:28:34.367Z,55.63
2022-09-03T02:29:38.519Z,49.13
2022-09-03T02:30:43.158Z,51.20
2022-09-03T02:31:47.660Z,49.25
2022-09-03T02:32:51.812Z,48.44
2022-09-03T02:33:57.935Z,50.69
2022-09-03T02:35:02.043Z,48.38
2022-09-03T02:36:14.400Z,45.75
2022-09-03T02:37:19.935Z,45.63
2022-09-03T02:38:26.191Z,48.75
2022-09-03T02:39:30.332Z,49.94
2022-09-03T02:40:34.330Z,46.56
2022-09-03T02:41:38.651Z,45.67
2022-09-03T02:42:43.044Z,50.12
2022-09-03T02:45:02.522Z,47.94
2022-09-03T02:46:12.783Z,43.87
2022-09-03T02:47:16.891Z,45.19
2022-09-03T02:48:23.985Z,44.07
2022-09-03T02:49:30.403Z,42.25
2022-09-03T02:50:37.492Z,42.81
2022-09-03T02:51:43.902Z,47.88
2022-09-03T02:52:47.932Z,45.75
2022-09-03T02:53:51.900Z,40.44
2022-09-03T02:54:55.864Z,43.07
2022-09-03T02:56:01.681Z,45.75
2022-09-03T02:57:09.124Z,45.56
2022-09-03T02:58:13.436Z,39.25
2022-09-03T02:59:17.399Z,39.19
2022-09-03T03:00:21.937Z,41.81
2022-09-03T03:01:26.135Z,41.50
2022-09-03T03:02:30.332Z,37.44
2022-09-03T03:03:35.365Z,39.38
2022-09-03T03:04:40.831Z,49.27
2022-09-03T03:05:49.994Z,48.93
2022-09-03T03:06:54.359Z,43.31
2022-09-03T03:07:59.917Z,43.19
2022-09-03T03:09:04.362Z,46.75
2022-09-03T03:10:09.466Z,47.06
2022-09-03T03:11:14.080Z,43.67
2022-09-03T03:12:18.103Z,45.88
2022-09-03T03:13:22.065Z,44.40
2022-09-03T03:14:26.101Z,43.80
2022-09-03T03:15:30.145Z,46.06
2022-09-03T03:16:34.328Z,42.67
2022-09-03T03:17:38.346Z,43.63
2022-09-03T03:18:43.154Z,44.00
2022-09-03T03:19:47.052Z,45.94
2022-09-03T03:20:51.261Z,38.44
2022-09-03T03:21:55.308Z,44.56
2022-09-03T03:23:02.075Z,38.81
2022-09-03T03:24:06.407Z,46.19
2022-09-03T03:25:10.968Z,37.13
2022-09-03T03:26:21.161Z,43.81
2022-09-03T03:27:26.548Z,39.19
2022-09-03T03:28:30.734Z,43.50
2022-09-03T03:29:34.697Z,45.60
2022-09-03T03:30:40.506Z,44.19
2022-09-03T03:31:44.907Z,44.38
2022-09-03T03:32:48.938Z,44.88
2022-09-03T03:34:00.446Z,40.13
2022-09-03T03:35:06.011Z,43.94
2022-09-03T03:36:13.617Z,44.53
2022-09-03T03:37:17.631Z,51.81
2022-09-03T03:38:21.606Z,41.25
2022-09-03T03:39:25.754Z,43.00
2022-09-03T03:40:32.987Z,49.56
2022-09-03T03:41:37.492Z,42.33
2022-09-03T03:42:41.805Z,42.80
2022-09-03T03:43:46.298Z,60.67
2022-09-03T03:44:50.338Z,98.60
2022-09-03T03:45:59.247Z,68.13
2022-09-03T03:47:03.819Z,71.33
2022-09-03T03:48:07.786Z,77.80
2022-09-03T03:49:11.988Z,90.19
2022-09-03T03:50:18.287Z,87.25
2022-09-03T03:51:22.336Z,80.27
2022-09-03T03:52:27.835Z,82.37
2022-09-03T03:53:32.358Z,75.60
2022-09-03T03:54:36.538Z,55.06
2022-09-03T03:55:40.494Z,60.07
2022-09-03T03:56:44.733Z,50.53
2022-09-03T03:57:50.391Z,48.33
2022-09-03T03:58:55.355Z,38.88
2022-09-03T03:59:59.478Z,34.31
2022-09-03T04:01:12.107Z,49.60
2022-09-03T04:02:18.374Z,51.44
2022-09-03T04:03:22.449Z,41.19
2022-09-03T04:04:26.416Z,38.00
2022-09-03T04:05:33.661Z,24.69
2022-09-03T04:06:36.246Z,25.75
2022-09-03T04:07:40.307Z,26.62
2022-09-03T04:08:46.348Z,23.75
2022-09-03T04:09:50.759Z,39.75
2022-09-03T04:10:55.150Z,26.06
2022-09-03T04:12:01.926Z,38.75
2022-09-03T04:13:05.886Z,41.19
2022-09-03T04:14:09.828Z,33.69
2022-09-03T04:15:13.885Z,41.37
2022-09-03T04:16:21.329Z,40.63
2022-09-03T04:17:25.590Z,29.31
2022-09-03T04:18:31.608Z,25.50
2022-09-03T04:19:35.608Z,24.19
2022-09-03T04:20:39.623Z,29.81
2022-09-03T04:21:44.020Z,29.75
2022-09-03T04:22:51.904Z,23.81
2022-09-03T04:23:55.068Z,23.12
2022-09-03T04:24:58.955Z,28.94
2022-09-03T04:26:05.301Z,33.40
2022-09-03T04:27:09.833Z,33.44
2022-09-03T04:28:15.843Z,26.94
2022-09-03T04:29:19.607Z,35.06
2022-09-03T04:30:24.138Z,40.00
2022-09-03T04:31:30.305Z,35.19
2022-09-03T04:32:35.736Z,44.80
2022-09-03T04:33:40.122Z,33.19
2022-09-03T04:34:44.130Z,39.06
2022-09-03T04:35:50.815Z,30.75
2022-09-03T04:36:54.883Z,35.19
2022-09-03T04:37:59.036Z,43.75
2022-09-03T04:39:03.213Z,34.13
2022-09-03T04:40:08.199Z,39.88
2022-09-03T04:41:15.308Z,40.81
2022-09-03T04:42:22.554Z,43.50
2022-09-03T04:43:27.064Z,43.44
2022-09-03T04:44:31.032Z,54.69
2022-09-03T04:45:35.143Z,50.94
2022-09-03T04:46:39.272Z,48.75
2022-09-03T04:47:43.172Z,46.44
2022-09-03T04:48:52.123Z,48.63
2022-09-03T04:49:57.177Z,50.00
2022-09-03T04:51:10.343Z,46.13
2022-09-03T04:52:16.369Z,51.19
2022-09-03T04:53:20.175Z,43.38
2022-09-03T04:54:24.140Z,50.44
2022-09-03T04:55:34.940Z,47.94
2022-09-03T04:56:40.158Z,53.67
2022-09-03T04:57:44.127Z,49.27
2022-09-03T04:58:51.205Z,50.40
2022-09-03T04:59:54.906Z,50.38
2022-09-03T05:00:59.067Z,51.06
2022-09-03T05:02:03.422Z,52.33
2022-09-03T05:03:07.463Z,52.19
2022-09-03T05:04:11.432Z,50.12
2022-09-03T05:05:16.725Z,50.69
2022-09-03T05:06:21.358Z,51.33
2022-09-03T05:07:25.314Z,49.80
2022-09-03T05:08:29.431Z,51.75
2022-09-03T05:09:33.344Z,54.19
2022-09-03T05:10:37.407Z,55.06
2022-09-03T05:11:41.390Z,59.63
2022-09-03T05:12:45.487Z,60.94
2022-09-03T05:13:51.209Z,66.94
2022-09-03T05:14:55.176Z,69.12
2022-09-03T05:16:04.242Z,67.56
2022-09-03T05:17:08.231Z,70.00
2022-09-03T05:18:12.455Z,68.37
2022-09-03T05:19:16.485Z,67.62
2022-09-03T05:20:21.896Z,63.75
2022-09-03T05:21:27.208Z,59.38
2022-09-03T05:22:31.409Z,68.94
2022-09-03T05:23:40.745Z,69.56
2022-09-03T05:24:44.747Z,74.69
2022-09-03T05:25:57.722Z,79.19
2022-09-03T05:27:01.992Z,76.12
2022-09-03T05:28:05.963Z,75.25
2022-09-03T05:29:10.172Z,82.06
2022-09-03T05:30:15.184Z,81.56
2022-09-03T05:31:20.671Z,72.25
2022-09-03T05:32:24.671Z,88.06
2022-09-03T05:33:29.079Z,81.75
2022-09-03T05:34:33.042Z,87.31
2022-09-03T05:35:37.001Z,82.62
2022-09-03T05:36:41.089Z,85.19
2022-09-03T05:37:45.539Z,85.87
2022-09-03T05:38:50.584Z,94.62
2022-09-03T05:39:54.611Z,97.00
2022-09-03T05:41:02.679Z,103.75
2022-09-03T05:42:06.722Z,101.81
2022-09-03T05:43:12.249Z,104.06
2022-09-03T05:44:16.286Z,103.56
2022-09-03T05:45:21.812Z,104.38
2022-09-03T05:46:29.705Z,97.00
2022-09-03T05:47:33.654Z,101.94
2022-09-03T05:48:39.201Z,98.31
2022-09-03T05:49:43.235Z,103.50
2022-09-03T05:50:47.216Z,112.69
2022-09-03T05:51:51.197Z,110.88
2022-09-03T05:52:55.235Z,107.25
2022-09-03T05:54:01.099Z,123.31
2022-09-03T05:55:05.507Z,119.62
2022-09-03T05:56:12.265Z,110.81
2022-09-03T05:57:16.258Z,112.31
2022-09-03T05:58:20.232Z,106.07
2022-09-03T05:59:24.392Z,122.31
2022-09-03T06:00:28.507Z,129.81
2022-09-03T06:01:36.203Z,120.62
2022-09-03T06:02:40.375Z,112.37
2022-09-03T06:03:46.534Z,106.56
2022-09-03T06:04:53.168Z,105.37
2022-09-03T06:05:57.137Z,99.53
2022-09-03T06:07:01.237Z,103.31
2022-09-03T06:08:05.199Z,99.37
2022-09-03T06:09:12.284Z,113.56
2022-09-03T06:10:17.110Z,115.25
2022-09-03T06:11:21.514Z,121.37
2022-09-03T06:12:25.537Z,120.62
2022-09-03T06:13:30.770Z,117.50
2022-09-03T06:14:36.320Z,118.53
2022-09-03T06:15:40.524Z,114.56
2022-09-03T06:16:47.302Z,104.00
2022-09-03T06:17:51.357Z,96.60
2022-09-03T06:18:56.839Z,86.31
2022-09-03T06:20:00.878Z,95.13
2022-09-03T06:21:10.591Z,85.27
2022-09-03T06:22:13.385Z,87.31
2022-09-03T06:23:17.439Z,107.00
2022-09-03T06:24:22.633Z,106.27
2022-09-03T06:25:28.309Z,92.25
2022-09-03T06:26:33.568Z,89.19
2022-09-03T06:27:38.723Z,86.00
2022-09-03T06:28:44.159Z,91.40
2022-09-03T06:29:48.120Z,89.07
2022-09-03T06:30:54.281Z,91.60
2022-09-03T06:31:58.337Z,106.06
2022-09-03T06:33:02.436Z,101.56
2022-09-03T06:34:06.437Z,106.44
2022-09-03T06:35:10.671Z,109.37
2022-09-03T06:36:18.569Z,114.12
2022-09-03T06:37:22.644Z,105.69
2022-09-03T06:38:30.612Z,115.19
2022-09-03T06:39:38.608Z,103.44
2022-09-03T06:40:42.597Z,106.06
2022-09-03T06:41:46.567Z,103.25
2022-09-03T06:42:57.907Z,104.94
2022-09-03T06:44:08.850Z,90.67
2022-09-03T06:45:12.803Z,105.94
2022-09-03T06:46:19.979Z,106.37
2022-09-03T06:47:24.015Z,91.73
2022-09-03T06:48:30.199Z,92.12
2022-09-03T06:49:34.257Z,103.94
2022-09-03T06:50:38.225Z,97.87
2022-09-03T06:51:44.102Z,102.75
2022-09-03T06:52:53.461Z,97.20
2022-09-03T06:54:02.480Z,99.31
2022-09-03T06:55:06.937Z,95.44
2022-09-03T06:56:14.066Z,100.69
2022-09-03T06:57:18.177Z,101.81
2022-09-03T06:58:22.855Z,96.06
2022-09-03T06:59:32.645Z,100.20
2022-09-03T07:01:22.740Z,101.06
2022-09-03T07:02:04.199Z,107.25
2022-09-03T07:04:07.633Z,114.06
2022-09-03T07:04:37.365Z,104.44
2022-09-03T07:05:12.196Z,108.80
2022-09-03T07:06:19.942Z,111.44
2022-09-03T07:07:23.914Z,109.56
2022-09-03T07:08:27.998Z,108.06
2022-09-03T07:09:32.003Z,108.69
2022-09-03T07:10:37.833Z,105.94
2022-09-03T07:11:41.936Z,103.12
2022-09-03T07:12:45.929Z,93.37
2022-09-03T07:13:51.438Z,99.60
2022-09-03T07:14:57.233Z,99.31
2022-09-03T07:16:03.961Z,98.69
2022-09-03T07:17:10.985Z,99.44
2022-09-03T07:18:14.983Z,93.37
2022-09-03T07:19:19.124Z,102.12
2022-09-03T07:20:23.371Z,95.93
2022-09-03T07:21:30.623Z,88.19
2022-09-03T07:22:37.989Z,96.80
2022-09-03T07:23:42.881Z,91.47
2022-09-03T07:24:48.409Z,93.47
2022-09-03T07:25:55.130Z,88.47
2022-09-03T07:26:59.452Z,74.07
2022-09-03T07:28:05.054Z,92.06
2022-09-03T07:29:09.276Z,84.81
2022-09-03T07:30:14.005Z,93.37
2022-09-03T07:31:20.848Z,108.20
2022-09-03T07:32:24.982Z,120.87
2022-09-03T07:33:33.630Z,121.50
2022-09-03T07:34:36.283Z,138.31
2022-09-03T07:35:43.772Z,132.31
2022-09-03T07:36:51.273Z,123.56
2022-09-03T07:37:55.982Z,129.25
2022-09-03T07:39:00.319Z,123.81
2022-09-03T07:40:04.701Z,119.31
2022-09-03T07:41:10.768Z,138.25
2022-09-03T07:42:14.758Z,139.75
2022-09-03T07:43:18.727Z,140.88
2022-09-03T07:44:22.729Z,138.62
2022-09-03T07:45:28.325Z,138.25
2022-09-03T07:46:35.553Z,139.62
2022-09-03T07:47:47.453Z,123.44
2022-09-03T07:48:53.498Z,135.00
2022-09-03T07:49:57.576Z,145.35
2022-09-03T07:51:02.124Z,146.82
2022-09-03T07:52:06.110Z,146.75
2022-09-03T07:53:13.470Z,146.41
2022-09-03T07:54:19.136Z,137.50
2022-09-03T07:55:25.580Z,133.31
2022-09-03T07:56:30.053Z,133.00
2022-09-03T07:57:34.132Z,138.62
2022-09-03T07:58:39.444Z,145.56
2022-09-03T07:59:43.485Z,134.50
2022-09-03T08:00:49.675Z,136.56
2022-09-03T08:01:53.331Z,126.19
2022-09-03T08:02:57.312Z,136.00
2022-09-03T08:04:02.501Z,95.69
2022-09-03T08:05:07.110Z,118.75
2022-09-03T08:06:13.979Z,104.87
2022-09-03T08:07:18.024Z,102.56
2022-09-03T08:08:22.136Z,110.12
2022-09-03T08:09:26.490Z,101.75
2022-09-03T08:10:36.768Z,100.06
2022-09-03T08:11:43.120Z,107.87
2022-09-03T08:12:47.242Z,111.56
2022-09-03T08:13:59.447Z,108.12
2022-09-03T08:15:03.469Z,108.44
2022-09-03T08:16:11.010Z,120.00
2022-09-03T08:17:15.154Z,118.13
2022-09-03T08:18:20.400Z,119.50
2022-09-03T08:19:26.629Z,112.75
2022-09-03T08:20:30.997Z,122.87
2022-09-03T08:21:35.512Z,129.12
2022-09-03T08:22:39.548Z,133.31
2022-09-03T08:23:46.267Z,124.56
2022-09-03T08:24:50.243Z,122.44
2022-09-03T08:26:03.537Z,110.56
2022-09-03T08:27:07.495Z,114.00
2022-09-03T08:28:11.554Z,117.37
2022-09-03T08:29:15.588Z,117.75
2022-09-03T08:30:21.099Z,115.31
2022-09-03T08:31:25.974Z,112.44
2022-09-03T08:32:32.653Z,120.94
2022-09-03T08:33:36.623Z,119.13
2022-09-03T08:34:40.688Z,119.87
2022-09-03T08:35:47.665Z,121.19
2022-09-03T08:36:54.198Z,115.75
2022-09-03T08:37:59.660Z,121.25
2022-09-03T08:39:06.197Z,117.56
2022-09-03T08:40:11.821Z,110.69
2022-09-03T08:41:18.350Z,104.87
2022-09-03T08:42:35.320Z,107.69
2022-09-03T08:44:16.570Z,111.62
2022-09-03T08:45:21.977Z,108.00
2022-09-03T08:46:48.242Z,103.75
2022-09-03T08:47:58.355Z,70.19
2022-09-03T08:49:04.479Z,87.25
2022-09-03T08:50:26.252Z,88.37
2022-09-03T08:51:31.761Z,97.94
2022-09-03T08:52:39.031Z,97.19
2022-09-03T08:53:51.667Z,96.19
2022-09-03T08:55:01.288Z,96.44
2022-09-03T08:56:10.968Z,92.88
2022-09-03T08:57:16.937Z,102.44
2022-09-03T08:58:23.659Z,105.69
2022-09-03T08:59:32.819Z,105.69
2022-09-03T09:00:47.669Z,104.31
2022-09-03T09:02:16.043Z,107.12
2022-09-03T09:03:32.043Z,107.37
2022-09-03T09:04:59.820Z,112.00
2022-09-03T09:06:12.734Z,128.06
2022-09-03T09:07:19.685Z,132.75
2022-09-03T09:08:32.829Z,108.44
2022-09-03T09:09:48.259Z,144.59
2022-09-03T09:11:19.216Z,147.56
2022-09-03T09:12:41.338Z,131.44
2022-09-03T09:13:47.550Z,135.00
2022-09-03T09:15:13.629Z,131.81
2022-09-03T09:16:24.482Z,111.06
2022-09-03T09:17:49.529Z,137.88
2022-09-03T09:19:02.481Z,131.19
2022-09-03T09:20:33.833Z,130.75
2022-09-03T09:21:55.762Z,123.94
2022-09-03T09:23:08.192Z,129.94
2022-09-03T09:24:24.811Z,130.56
2022-09-03T09:25:29.052Z,122.13
2022-09-03T09:26:34.519Z,133.94
2022-09-03T09:27:40.343Z,143.53
2022-09-03T09:28:47.105Z,152.00
2022-09-03T09:29:56.908Z,141.75
2022-09-03T09:31:03.575Z,135.37
2022-09-03T09:32:10.901Z,136.20
2022-09-03T09:33:16.655Z,120.93
2022-09-03T09:34:20.630Z,113.06
2022-09-03T09:35:25.295Z,119.06
2022-09-03T09:36:31.047Z,142.59
2022-09-03T09:37:35.119Z,163.53
2022-09-03T09:38:40.460Z,144.44
2022-09-03T09:39:56.223Z,173.00
2022-09-03T09:41:15.203Z,148.31
2022-09-03T09:42:21.799Z,162.47
2022-09-03T09:43:25.819Z,182.53
2022-09-03T09:44:29.857Z,184.59
2022-09-03T09:45:34.722Z,165.18
2022-09-03T09:46:40.614Z,155.81
2022-09-03T09:47:44.843Z,128.53
2022-09-03T09:48:57.864Z,96.06
2022-09-03T09:50:03.659Z,103.44
2022-09-03T09:51:16.341Z,75.12
2022-09-03T09:52:21.844Z,72.75
2022-09-03T09:53:28.841Z,73.44
2022-09-03T09:54:32.917Z,61.87
2022-09-03T09:55:41.461Z,61.81
2022-09-03T09:56:46.368Z,59.75
2022-09-03T09:57:53.410Z,66.06
2022-09-03T09:59:08.919Z,60.19
2022-09-03T10:00:16.442Z,86.75
2022-09-03T10:01:23.169Z,87.37
2022-09-03T10:02:28.972Z,94.75
2022-09-03T10:03:35.131Z,79.56
2022-09-03T10:04:39.760Z,79.37
2022-09-03T10:05:44.663Z,74.37
2022-09-03T10:06:57.599Z,99.31
2022-09-03T10:08:04.536Z,123.67
2022-09-03T10:09:14.378Z,166.25
2022-09-03T10:10:21.392Z,211.47
2022-09-03T10:11:25.439Z,207.41
2022-09-03T10:12:32.516Z,218.59
2022-09-03T10:13:39.543Z,196.22
2022-09-03T10:14:47.791Z,203.28
2022-09-03T10:16:00.980Z,180.18
2022-09-03T10:17:39.518Z,170.53
2022-09-03T10:18:55.867Z,112.25
2022-09-03T10:20:14.781Z,106.25
2022-09-03T10:21:44.107Z,107.69
2022-09-03T10:22:56.844Z,91.50
2022-09-03T10:24:13.057Z,99.31
2022-09-03T10:25:18.171Z,96.75
2022-09-03T10:26:24.535Z,106.44
2022-09-03T10:27:30.306Z,109.31
2022-09-03T10:28:39.989Z,127.94
2022-09-03T10:29:44.060Z,146.47
2022-09-03T10:31:01.432Z,155.00
2022-09-03T10:32:14.990Z,131.12
2022-09-03T10:33:33.969Z,128.06
2022-09-03T10:34:52.600Z,116.88
2022-09-03T10:36:10.955Z,117.25
2022-09-03T10:37:38.906Z,114.00
2022-09-03T10:38:45.661Z,105.50
2022-09-03T10:40:01.241Z,153.71
2022-09-03T10:41:19.125Z,127.12
2022-09-03T10:42:34.744Z,129.19
2022-09-03T10:44:06.103Z,139.94
2022-09-03T10:45:30.752Z,99.75
2022-09-03T10:46:42.854Z,98.56
2022-09-03T10:48:12.545Z,109.12
2022-09-03T10:49:34.604Z,94.50
2022-09-03T10:51:00.451Z,97.19
2022-09-03T10:52:10.510Z,92.50
2022-09-03T10:53:32.737Z,91.44
2022-09-03T10:54:51.853Z,88.06
2022-09-03T10:56:07.757Z,91.81
2022-09-03T10:57:23.517Z,93.94
2022-09-03T10:58:57.815Z,95.69
2022-09-03T11:00:10.023Z,103.19
2022-09-03T11:01:39.659Z,117.56
2022-09-03T11:03:04.915Z,104.81
2022-09-03T11:04:17.856Z,123.87
2022-09-03T11:05:30.520Z,172.12
2022-09-03T11:06:43.940Z,199.78
2022-09-03T11:07:56.854Z,190.00
2022-09-03T11:09:09.721Z,196.17
2022-09-03T11:10:35.066Z,188.24
2022-09-03T11:11:44.632Z,157.35
2022-09-03T11:13:00.271Z,182.50
2022-09-03T11:14:18.196Z,166.12
2022-09-03T11:15:30.500Z,174.29
2022-09-03T11:16:37.707Z,150.06
2022-09-03T11:17:44.787Z,174.59
2022-09-03T11:19:03.477Z,196.72
2022-09-03T11:20:22.544Z,156.44
2022-09-03T11:21:28.803Z,163.41
2022-09-03T11:22:34.016Z,209.94
2022-09-03T11:23:41.022Z,237.59
2022-09-03T11:24:48.933Z,230.28
2022-09-03T11:25:55.961Z,209.00
2022-09-03T11:27:19.885Z,202.06
2022-09-03T11:28:39.121Z,202.00
2022-09-03T11:29:59.375Z,198.71
2022-09-03T11:31:15.549Z,193.88
2022-09-03T11:32:28.329Z,142.31
2022-09-03T11:33:34.825Z,103.75
2022-09-03T11:34:50.653Z,83.50
2022-09-03T11:36:00.014Z,89.44
2022-09-03T11:37:25.976Z,79.81
2022-09-03T11:38:31.105Z,85.19
2022-09-03T11:39:40.042Z,85.81
2022-09-03T11:40:46.728Z,74.31
2022-09-03T11:42:05.810Z,80.06
2022-09-03T11:43:15.311Z,86.44
2022-09-03T11:44:20.334Z,78.31
2022-09-03T11:45:30.249Z,74.31
2022-09-03T11:46:34.575Z,76.56
2022-09-03T11:47:41.313Z,81.00
2022-09-03T11:48:53.816Z,81.37
2022-09-03T11:50:00.786Z,78.25
2022-09-03T11:51:05.283Z,74.44
2022-09-03T11:52:09.261Z,78.94
2022-09-03T11:53:19.000Z,79.19
2022-09-03T11:54:25.706Z,73.56
2022-09-03T11:55:38.264Z,76.69
2022-09-03T11:56:38.986Z,73.25
2022-09-03T11:57:44.664Z,81.56
2022-09-03T11:59:03.457Z,80.19
2022-09-03T12:00:14.236Z,97.73
2022-09-03T12:01:18.715Z,129.63
2022-09-03T12:02:34.608Z,156.87
2022-09-03T12:03:47.809Z,235.33
2022-09-03T12:05:18.852Z,211.33
2022-09-03T12:06:56.891Z,179.06
2022-09-03T12:08:15.226Z,163.88
2022-09-03T12:09:59.160Z,169.88
2022-09-03T12:11:28.477Z,129.63
2022-09-03T12:12:48.876Z,143.53
2022-09-03T12:14:21.997Z,154.00
2022-09-03T12:15:49.108Z,148.71
2022-09-03T12:16:59.432Z,129.59
2022-09-03T12:18:09.345Z,146.29
2022-09-03T12:19:49.241Z,110.63
2022-09-03T12:20:59.401Z,89.25
2022-09-03T12:22:03.506Z,80.06
2022-09-03T12:23:09.730Z,94.37
2022-09-03T12:24:15.256Z,94.87
2022-09-03T12:25:19.300Z,98.56
2022-09-03T12:26:26.300Z,91.81
2022-09-03T12:27:33.491Z,92.00
2022-09-03T12:28:41.437Z,99.69
2022-09-03T12:30:00.275Z,89.94
2022-09-03T12:31:10.409Z,93.94
2022-09-03T12:32:15.522Z,91.00
2022-09-03T12:33:21.637Z,92.00
2022-09-03T12:34:25.782Z,98.50
2022-09-03T12:36:47.821Z,126.69
2022-09-03T12:38:11.975Z,125.71
2022-09-03T12:39:18.219Z,141.71
2022-09-03T12:40:11.416Z,140.35
2022-09-03T12:41:27.942Z,144.65
2022-09-03T12:42:32.903Z,137.29
2022-09-03T12:43:37.965Z,165.53
2022-09-03T12:44:42.782Z,168.53
2022-09-03T12:48:19.768Z,138.59
2022-09-03T12:49:31.215Z,142.00
2022-09-03T12:50:29.902Z,128.06
2022-09-03T12:51:58.158Z,147.71
2022-09-03T12:52:51.008Z,114.19
2022-09-03T12:53:55.106Z,102.69
2022-09-03T12:55:04.815Z,106.31
2022-09-03T12:56:12.258Z,100.06
2022-09-03T12:57:19.203Z,99.06
2022-09-03T12:58:29.143Z,97.44
2022-09-03T12:59:36.175Z,96.44
2022-09-03T13:00:43.240Z,93.94
2022-09-03T13:01:50.352Z,94.37
2022-09-03T13:03:09.688Z,102.38
2022-09-03T13:04:16.712Z,97.62
2022-09-03T13:05:23.724Z,101.69
2022-09-03T13:06:30.797Z,96.19
2022-09-03T13:07:37.614Z,99.69
2022-09-03T13:08:49.365Z,103.12
2022-09-03T13:09:56.382Z,103.75
2022-09-03T13:11:03.348Z,105.81
2022-09-03T13:12:07.662Z,102.62
2022-09-03T13:13:31.970Z,100.25
2022-09-03T13:14:47.011Z,99.62
2022-09-03T13:16:11.600Z,97.25
2022-09-03T13:17:38.075Z,95.38
2022-09-03T13:18:48.033Z,99.06
2022-09-03T13:20:03.814Z,101.75
2022-09-03T13:21:10.795Z,93.87
2022-09-03T13:22:20.548Z,103.56
2022-09-03T13:23:39.354Z,93.12
2022-09-03T13:25:15.966Z,92.25
2022-09-03T13:26:47.090Z,90.81
2022-09-03T13:28:23.756Z,90.93
2022-09-03T13:29:50.033Z,92.81
2022-09-03T13:30:58.840Z,95.06
2022-09-03T13:32:25.139Z,94.13
2022-09-03T13:33:44.240Z,90.38
2022-09-03T13:35:00.380Z,93.25
2022-09-03T13:36:13.635Z,92.62
2022-09-03T13:37:46.071Z,93.12
2022-09-03T13:38:58.906Z,94.69
2022-09-03T13:40:20.869Z,90.19
2022-09-03T13:41:32.453Z,96.44
2022-09-03T13:42:42.841Z,98.19
2022-09-03T13:43:55.654Z,92.81
2022-09-03T13:45:17.506Z,91.50
2022-09-03T13:46:27.701Z,93.56
2022-09-03T13:47:43.973Z,97.25
2022-09-03T13:48:51.215Z,91.81
2022-09-03T13:50:07.051Z,91.81
2022-09-03T13:51:25.905Z,92.62
2022-09-03T13:52:38.703Z,95.56
2022-09-03T13:53:51.436Z,91.75
2022-09-03T13:54:58.408Z,92.69
2022-09-03T13:56:05.387Z,90.75
2022-09-03T13:57:21.475Z,92.62
2022-09-03T13:58:30.006Z,92.12
2022-09-03T14:00:08.622Z,86.94
2022-09-03T14:01:30.216Z,86.81
2022-09-03T14:02:46.279Z,87.81
2022-09-03T14:04:02.308Z,85.62
2022-09-03T14:05:12.292Z,88.12
2022-09-03T14:06:42.597Z,96.56
2022-09-03T14:07:52.137Z,95.38
2022-09-03T14:09:32.068Z,90.44
2022-09-03T14:11:00.183Z,85.12
2022-09-03T14:12:07.147Z,90.44
2022-09-03T14:13:30.626Z,94.19
2022-09-03T14:15:02.344Z,89.19
2022-09-03T14:16:30.088Z,98.12
2022-09-03T14:18:02.348Z,88.81
2022-09-03T14:19:12.146Z,97.50
2022-09-03T14:20:28.963Z,87.12
2022-09-03T14:21:57.000Z,82.94
2022-09-03T14:23:23.470Z,86.00
2022-09-03T14:24:33.108Z,85.81
2022-09-03T14:25:37.459Z,78.75
2022-09-03T14:26:50.279Z,87.44
2022-09-03T14:27:56.372Z,89.56
2022-09-03T14:29:05.853Z,93.69
2022-09-03T14:30:29.671Z,92.81
2022-09-03T14:31:58.846Z,87.69
2022-09-03T14:33:05.855Z,89.31
2022-09-03T14:34:15.301Z,85.87
2022-09-03T14:35:25.221Z,85.81
2022-09-03T14:36:47.876Z,92.37
2022-09-03T14:38:00.418Z,83.37
2022-09-03T14:39:11.759Z,93.62
2022-09-03T14:40:19.359Z,86.31
2022-09-03T14:41:32.510Z,93.25
2022-09-03T14:43:09.238Z,94.25
2022-09-03T14:44:40.208Z,86.87
2022-09-03T14:46:05.773Z,87.06
2022-09-03T14:47:22.207Z,91.87
2022-09-03T14:48:57.255Z,89.06
2022-09-03T14:50:24.684Z,86.12
2022-09-03T14:52:07.870Z,95.06
2022-09-03T14:53:17.451Z,100.06
2022-09-03T14:54:39.136Z,91.44
2022-09-03T14:55:53.960Z,105.25
2022-09-03T14:57:17.156Z,110.81